Time;durP1;ratioP1;P1;durP2;ratioP2;P2;SDS_P1;SDS_P2;PMS_P1;PMS_P2;Temp;Humidity;BMP_temperature;BMP_pressure;BME280_temperature;BME280_humidity;BME280_pressure;Samples;Min_cycle;Max_cycle;Signal;HPM_P1;HPM_P2
2022/08/24 00:02:36;;;;;;;3.93;2.73;;;;;;;;;;4995385;28;20194;-85
2022/08/24 00:05:40;;;;;;;7.17;2.77;;;;;;;;;;4975781;28;20646;-84
2022/08/24 00:08:46;;;;;;;3.47;2.87;;;;;;;;;;4995698;28;20210;-84
2022/08/24 00:11:50;;;;;;;3.43;2.60;;;;;;;;;;4984261;28;20202;-84
2022/08/24 00:14:54;;;;;;;4.80;2.80;;;;;;;;;;4995522;28;20186;-84
2022/08/24 00:17:58;;;;;;;5.93;3.10;;;;;;;;;;4983634;28;20226;-84
2022/08/24 00:21:03;;;;;;;3.50;3.20;;;;;;;;;;4995026;28;20194;-83
2022/08/24 00:24:08;;;;;;;3.40;3.10;;;;;;;;;;4984009;28;20182;-84
2022/08/24 00:27:12;;;;;;;3.63;3.10;;;;;;;;;;4995375;28;20218;-84
2022/08/24 00:30:18;;;;;;;4.30;2.90;;;;;;;;;;4983534;28;20201;-84
2022/08/24 00:33:23;;;;;;;3.27;2.97;;;;;;;;;;4984559;28;20178;-84
2022/08/24 00:36:27;;;;;;;3.63;3.33;;;;;;;;;;4984173;28;20680;-84
2022/08/24 00:39:31;;;;;;;4.53;3.10;;;;;;;;;;5005932;28;20194;-84
2022/08/24 00:42:35;;;;;;;4.10;3.00;;;;;;;;;;4983056;28;20193;-84
2022/08/24 00:45:49;;;;;;;4.27;2.97;;;;;;;;;;4994652;28;20205;-84
2022/08/24 00:49:01;;;;;;;3.67;3.13;;;;;;;;;;4995299;28;20214;-84
2022/08/24 00:52:24;;;;;;;4.73;3.50;;;;;;;;;;4964762;28;20190;-83
2022/08/24 00:55:32;;;;;;;6.83;3.40;;;;;;;;;;4975903;28;20187;-84
2022/08/24 00:58:43;;;;;;;4.30;3.50;;;;;;;;;;4977893;28;20190;-84
2022/08/24 01:01:50;;;;;;;4.20;3.80;;;;;;;;;;5013269;28;20190;-84
2022/08/24 01:04:58;;;;;;;3.43;3.13;;;;;;;;;;5009570;28;20190;-84
2022/08/24 01:08:06;;;;;;;3.60;3.30;;;;;;;;;;4983324;28;20214;-84
2022/08/24 01:11:14;;;;;;;8.00;3.23;;;;;;;;;;4995168;28;20190;-84
2022/08/24 01:14:20;;;;;;;2.80;2.60;;;;;;;;;;5006704;28;20178;-84
2022/08/24 01:20:58;;;;;;;4.80;3.13;;;;;;;;;;4994690;28;20194;-84
2022/08/24 01:24:08;;;;;;;3.50;3.17;;;;;;;;;;4994644;28;20183;-84
2022/08/24 01:27:14;;;;;;;3.50;3.17;;;;;;;;;;4983443;28;20210;-84
2022/08/24 01:30:18;;;;;;;3.37;3.07;;;;;;;;;;4982622;28;20214;-84
2022/08/24 01:33:26;;;;;;;4.20;3.27;;;;;;;;;;4982894;28;20182;-84
2022/08/24 01:36:36;;;;;;;4.00;3.10;;;;;;;;;;5005951;28;20692;-84
2022/08/24 01:39:43;;;;;;;5.13;3.57;;;;;;;;;;5005575;28;20261;-84
2022/08/24 01:42:50;;;;;;;4.10;3.40;;;;;;;;;;4994229;28;20202;-84
2022/08/24 01:45:54;;;;;;;3.60;3.30;;;;;;;;;;4995816;28;20213;-84
2022/08/24 01:48:58;;;;;;;4.00;3.70;;;;;;;;;;4994481;28;20679;-83
2022/08/24 01:52:05;;;;;;;3.07;2.87;;;;;;;;;;4977567;28;20559;-84
2022/08/24 01:55:12;;;;;;;3.93;3.40;;;;;;;;;;4958835;28;20194;-84
2022/08/24 01:58:16;;;;;;;4.90;3.47;;;;;;;;;;4983034;28;20569;-84
2022/08/24 02:01:20;;;;;;;3.53;3.20;;;;;;;;;;4982558;28;20194;-84
2022/08/24 02:04:25;;;;;;;3.53;3.20;;;;;;;;;;4983160;28;20194;-84
2022/08/24 02:07:32;;;;;;;4.17;3.33;;;;;;;;;;4992155;28;20677;-83
2022/08/24 02:10:36;;;;;;;4.00;3.50;;;;;;;;;;4963155;28;20206;-84
2022/08/24 02:13:41;;;;;;;5.60;3.40;;;;;;;;;;4965509;28;20309;-84
2022/08/24 02:16:46;;;;;;;4.03;3.33;;;;;;;;;;4982114;28;20225;-84
2022/08/24 02:19:50;;;;;;;4.73;4.20;;;;;;;;;;5004305;28;20194;-84
2022/08/24 02:22:56;;;;;;;5.47;4.33;;;;;;;;;;4982325;28;20186;-83
2022/08/24 02:26:03;;;;;;;4.20;3.80;;;;;;;;;;5004601;28;20178;-83
2022/08/24 02:29:07;;;;;;;6.70;3.40;;;;;;;;;;4993086;28;20214;-84
2022/08/24 02:32:12;;;;;;;3.97;3.57;;;;;;;;;;4985515;28;20183;-84
2022/08/24 02:35:17;;;;;;;4.33;3.93;;;;;;;;;;4972557;28;20538;-84
2022/08/24 02:38:22;;;;;;;4.37;3.40;;;;;;;;;;4973867;28;20218;-84
2022/08/24 02:41:26;;;;;;;4.17;3.77;;;;;;;;;;4985563;28;20183;-84
2022/08/24 02:44:30;;;;;;;5.43;4.10;;;;;;;;;;4995082;28;20197;-84
2022/08/24 02:47:35;;;;;;;4.17;3.53;;;;;;;;;;4985591;28;20218;-84
2022/08/24 02:50:43;;;;;;;4.63;3.00;;;;;;;;;;4996811;28;20681;-84
2022/08/24 02:53:47;;;;;;;5.30;3.70;;;;;;;;;;4989610;28;20645;-84
2022/08/24 02:56:53;;;;;;;4.17;3.77;;;;;;;;;;5007580;28;20225;-84
2022/08/24 02:59:58;;;;;;;3.93;3.57;;;;;;;;;;4985322;28;20174;-84
2022/08/24 03:03:03;;;;;;;4.27;3.87;;;;;;;;;;4965843;28;20187;-84
2022/08/24 03:06:08;;;;;;;3.70;3.40;;;;;;;;;;4987806;28;20650;-83
2022/08/24 03:09:12;;;;;;;4.67;3.97;;;;;;;;;;4966099;28;20195;-84
2022/08/24 03:12:17;;;;;;;4.17;3.77;;;;;;;;;;4976106;28;20191;-84
2022/08/24 03:15:21;;;;;;;5.57;3.63;;;;;;;;;;4976904;28;20175;-84
2022/08/24 03:18:26;;;;;;;4.60;4.03;;;;;;;;;;4978838;28;20214;-84
2022/08/24 03:21:30;;;;;;;5.40;3.97;;;;;;;;;;4981947;28;20532;-84
2022/08/24 03:24:34;;;;;;;5.37;4.17;;;;;;;;;;4984873;28;20178;-84
2022/08/24 03:27:38;;;;;;;4.37;3.60;;;;;;;;;;4973505;28;20217;-84
2022/08/24 03:30:43;;;;;;;4.30;3.73;;;;;;;;;;4969328;28;20210;-84
2022/08/24 03:33:48;;;;;;;7.17;3.50;;;;;;;;;;4965655;28;20183;-84
2022/08/24 03:36:53;;;;;;;3.50;3.20;;;;;;;;;;4977410;28;20554;-84
2022/08/24 03:39:58;;;;;;;4.37;3.60;;;;;;;;;;4990181;28;20194;-83
2022/08/24 03:43:03;;;;;;;5.60;4.20;;;;;;;;;;4982489;28;20186;-84
2022/08/24 03:46:07;;;;;;;4.20;3.80;;;;;;;;;;4996016;28;20186;-84
2022/08/24 03:49:13;;;;;;;3.90;3.50;;;;;;;;;;5027495;23;20225;-84
2022/08/24 03:52:18;;;;;;;4.27;3.70;;;;;;;;;;4993871;28;20197;-85
2022/08/24 03:55:23;;;;;;;3.63;3.33;;;;;;;;;;5014624;28;20521;-85
2022/08/24 03:58:26;;;;;;;5.47;3.50;;;;;;;;;;5003000;28;20569;-85
2022/08/24 04:01:30;;;;;;;4.00;3.13;;;;;;;;;;5014230;28;20521;-87
2022/08/24 04:04:35;;;;;;;5.10;3.33;;;;;;;;;;4991609;28;20182;-84
2022/08/24 04:07:40;;;;;;;4.60;3.57;;;;;;;;;;4991609;28;20185;-84
2022/08/24 04:10:44;;;;;;;8.20;3.30;;;;;;;;;;5002953;28;20201;-85
2022/08/24 04:13:51;;;;;;;3.80;3.20;;;;;;;;;;4991884;28;20205;-85
2022/08/24 04:16:56;;;;;;;3.90;3.43;;;;;;;;;;4986711;28;20197;-85
2022/08/24 04:20:06;;;;;;;6.37;3.43;;;;;;;;;;4983202;28;20217;-84
2022/08/24 04:23:14;;;;;;;4.27;3.50;;;;;;;;;;4994121;28;20182;-84
2022/08/24 04:26:21;;;;;;;5.67;4.00;;;;;;;;;;4994378;28;20225;-85
2022/08/24 04:29:25;;;;;;;4.37;3.97;;;;;;;;;;4972180;28;20213;-86
2022/08/24 04:32:31;;;;;;;5.50;4.10;;;;;;;;;;4972246;28;20187;-85
2022/08/24 04:35:37;;;;;;;6.50;3.90;;;;;;;;;;4983040;28;20186;-85
2022/08/24 04:38:42;;;;;;;7.37;4.33;;;;;;;;;;4990948;28;20220;-84
2022/08/24 04:42:09;;;;;;;4.43;3.60;;;;;;;;;;4987545;28;20201;-85
2022/08/24 04:45:16;;;;;;;3.80;3.43;;;;;;;;;;4991736;28;20181;-85
2022/08/24 04:48:20;;;;;;;4.30;3.37;;;;;;;;;;4990306;28;20193;-83
2022/08/24 04:51:24;;;;;;;3.60;3.30;;;;;;;;;;4988953;28;20212;-85
2022/08/24 04:54:28;;;;;;;4.47;3.43;;;;;;;;;;4981911;28;20566;-85
2022/08/24 04:57:43;;;;;;;4.77;4.13;;;;;;;;;;4998748;28;20201;-84
2022/08/24 05:00:47;;;;;;;5.37;3.33;;;;;;;;;;4990648;28;20197;-85
2022/08/24 05:03:53;;;;;;;6.40;3.70;;;;;;;;;;4983345;28;20673;-83
2022/08/24 05:06:57;;;;;;;4.17;3.70;;;;;;;;;;4990560;28;20189;-84
2022/08/24 05:10:02;;;;;;;6.93;4.23;;;;;;;;;;4982140;28;20221;-84
2022/08/24 05:13:08;;;;;;;5.20;3.70;;;;;;;;;;4982214;28;20182;-84
2022/08/24 05:16:18;;;;;;;5.63;3.63;;;;;;;;;;4971306;28;20186;-84
2022/08/24 05:19:23;;;;;;;4.43;3.97;;;;;;;;;;4981580;28;20210;-84
2022/08/24 05:22:27;;;;;;;3.80;3.40;;;;;;;;;;4970213;28;20194;-83
2022/08/24 05:25:33;;;;;;;5.33;3.30;;;;;;;;;;4986405;28;20201;-84
2022/08/24 05:28:38;;;;;;;4.73;3.13;;;;;;;;;;4981082;28;20569;-84
2022/08/24 05:31:44;;;;;;;3.83;3.30;;;;;;;;;;4981820;28;20201;-83
2022/08/24 05:34:49;;;;;;;4.43;3.13;;;;;;;;;;4995822;28;20198;-84
2022/08/24 05:37:53;;;;;;;3.53;2.97;;;;;;;;;;4980545;28;20190;-84
2022/08/24 05:41:03;;;;;;;5.73;3.13;;;;;;;;;;4983538;28;20679;-84
2022/08/24 05:44:10;;;;;;;4.00;3.40;;;;;;;;;;5001891;28;20542;-84
2022/08/24 05:47:14;;;;;;;3.73;3.27;;;;;;;;;;4990275;28;20182;-84
2022/08/24 05:50:18;;;;;;;4.77;3.40;;;;;;;;;;4989933;28;20225;-84
2022/08/24 05:53:23;;;;;;;5.23;3.23;;;;;;;;;;5001079;28;20185;-84
2022/08/24 05:56:27;;;;;;;4.10;3.70;;;;;;;;;;4981965;28;20175;-84
2022/08/24 05:59:31;;;;;;;5.43;3.63;;;;;;;;;;4976699;28;20221;-85
2022/08/24 06:02:39;;;;;;;3.97;3.23;;;;;;;;;;5001620;28;20178;-84
2022/08/24 06:05:46;;;;;;;3.57;3.27;;;;;;;;;;4993395;28;20193;-85
2022/08/24 06:08:55;;;;;;;3.63;3.33;;;;;;;;;;4993819;28;20225;-85
2022/08/24 06:11:59;;;;;;;4.53;3.27;;;;;;;;;;5005045;28;20545;-84
2022/08/24 06:15:04;;;;;;;6.30;3.83;;;;;;;;;;5005027;28;20185;-84
2022/08/24 06:18:08;;;;;;;6.63;3.13;;;;;;;;;;5004635;28;20185;-84
2022/08/24 06:21:15;;;;;;;8.13;4.10;;;;;;;;;;4993656;28;20189;-85
2022/08/24 06:27:44;;;;;;;5.00;3.13;;;;;;;;;;5004729;28;20521;-85
2022/08/24 06:30:48;;;;;;;3.93;3.10;;;;;;;;;;4993523;28;20198;-85
2022/08/24 06:34:00;;;;;;;3.87;3.50;;;;;;;;;;5003594;28;20201;-84
2022/08/24 06:37:06;;;;;;;11.60;3.93;;;;;;;;;;4987725;28;20202;-84
2022/08/24 06:40:11;;;;;;;3.80;3.40;;;;;;;;;;4980186;28;20234;-84
2022/08/24 06:43:15;;;;;;;3.63;3.30;;;;;;;;;;4984891;28;20182;-84
2022/08/24 06:46:30;;;;;;;3.77;2.93;;;;;;;;;;4985140;28;20202;-84
2022/08/24 06:49:36;;;;;;;4.57;2.93;;;;;;;;;;4984618;28;20238;-84
2022/08/24 06:52:40;;;;;;;4.13;2.87;;;;;;;;;;4984822;28;20194;-84
2022/08/24 06:55:56;;;;;;;3.97;2.63;;;;;;;;;;4982590;28;20210;-84
2022/08/24 06:59:03;;;;;;;3.43;2.80;;;;;;;;;;4974235;28;20229;-84
2022/08/24 07:02:08;;;;;;;2.90;2.47;;;;;;;;;;4985188;28;20527;-84
2022/08/24 07:05:12;;;;;;;2.47;2.27;;;;;;;;;;4991945;28;20181;-84
2022/08/24 07:08:35;;;;;;;2.57;2.10;;;;;;;;;;5003898;28;20225;-84
2022/08/24 07:11:39;;;;;;;2.60;2.40;;;;;;;;;;5004156;28;20214;-84
2022/08/24 07:14:43;;;;;;;2.83;2.20;;;;;;;;;;4992982;28;20513;-84
2022/08/24 07:17:47;;;;;;;2.20;2.00;;;;;;;;;;4988225;28;20205;-83
2022/08/24 07:20:52;;;;;;;2.40;2.13;;;;;;;;;;5014739;28;20197;-83
2022/08/24 07:24:05;;;;;;;2.23;1.90;;;;;;;;;;5015287;28;20181;-84
2022/08/24 07:27:13;;;;;;;2.00;1.80;;;;;;;;;;4993355;28;20201;-84
2022/08/24 07:30:17;;;;;;;3.00;1.80;;;;;;;;;;5003988;28;20212;-84
2022/08/24 07:33:22;;;;;;;5.13;2.00;;;;;;;;;;4992471;28;20189;-86
2022/08/24 07:36:27;;;;;;;2.10;1.83;;;;;;;;;;4995260;28;20182;-83
2022/08/24 07:39:32;;;;;;;2.30;1.40;;;;;;;;;;4984253;28;20217;-84
2022/08/24 07:42:38;;;;;;;2.00;1.80;;;;;;;;;;4973089;28;20202;-83
2022/08/24 07:45:42;;;;;;;2.00;1.77;;;;;;;;;;4972661;28;20194;-83
2022/08/24 07:48:48;;;;;;;2.03;1.77;;;;;;;;;;4995157;28;20226;-84
2022/08/24 07:51:52;;;;;;;2.50;2.23;;;;;;;;;;4984154;28;20210;-84
2022/08/24 07:54:57;;;;;;;3.97;1.90;;;;;;;;;;4988966;28;20197;-84
2022/08/24 07:58:01;;;;;;;4.60;2.33;;;;;;;;;;4992727;28;20185;-84
2022/08/24 08:01:07;;;;;;;3.47;2.13;;;;;;;;;;4988912;28;20186;-84
2022/08/24 08:04:13;;;;;;;6.67;2.50;;;;;;;;;;5002779;28;20189;-84
2022/08/24 08:07:17;;;;;;;10.40;2.73;;;;;;;;;;5002898;28;20186;-84
2022/08/24 08:10:22;;;;;;;4.80;2.10;;;;;;;;;;4991563;28;20221;-84
2022/08/24 08:13:28;;;;;;;4.40;1.83;;;;;;;;;;5013985;28;20178;-84
2022/08/24 08:16:33;;;;;;;4.60;2.00;;;;;;;;;;5002935;28;20182;-85
2022/08/24 08:19:37;;;;;;;2.37;2.17;;;;;;;;;;5014113;28;20222;-85
2022/08/24 08:26:22;;;;;;;2.37;2.17;;;;;;;;;;5014866;28;20175;-84
2022/08/24 08:29:50;;;;;;;3.10;1.97;;;;;;;;;;5006620;28;20219;-84
2022/08/24 08:32:54;;;;;;;3.43;2.10;;;;;;;;;;5002243;28;20556;-84
2022/08/24 08:36:09;;;;;;;2.83;2.10;;;;;;;;;;5002934;28;20189;-84
2022/08/24 08:39:19;;;;;;;3.87;2.10;;;;;;;;;;4991749;28;20214;-85
2022/08/24 08:42:57;;;;;;;3.37;2.00;;;;;;;;;;4991164;28;20180;-90
2022/08/24 08:46:32;;;;;;;2.42;1.90;;;;;;;;;;4991116;28;20178;-84
2022/08/24 08:50:24;;;;;;;2.25;2.00;;;;;;;;;;5013313;28;20227;-84
2022/08/24 08:54:01;;;;;;;2.80;1.85;;;;;;;;;;4990868;28;20520;-84
2022/08/24 08:57:37;;;;;;;2.63;1.58;;;;;;;;;;5001984;28;20521;-85
2022/08/24 09:00:45;;;;;;;3.25;1.83;;;;;;;;;;4995391;28;20193;-84
2022/08/24 09:04:11;;;;;;;3.95;1.80;;;;;;;;;;4971544;28;20175;-85
2022/08/24 09:07:44;;;;;;;1.80;1.60;;;;;;;;;;4984537;28;20186;-84
2022/08/24 09:11:10;;;;;;;2.22;1.73;;;;;;;;;;4971367;28;20185;-85
2022/08/24 09:14:20;;;;;;;2.15;1.77;;;;;;;;;;4982401;28;20189;-85
2022/08/24 09:17:49;;;;;;;1.85;1.63;;;;;;;;;;4971631;28;20180;-84
2022/08/24 09:21:15;;;;;;;2.83;1.58;;;;;;;;;;4972090;28;20192;-83
2022/08/24 09:24:29;;;;;;;2.28;1.50;;;;;;;;;;5001491;28;20205;-84
2022/08/24 09:27:48;;;;;;;4.68;1.50;;;;;;;;;;5003904;28;20174;-84
2022/08/24 09:31:11;;;;;;;3.97;1.63;;;;;;;;;;5003765;28;20186;-86
2022/08/24 09:34:34;;;;;;;5.85;1.77;;;;;;;;;;4982181;28;20190;-85
2022/08/24 09:38:05;;;;;;;6.22;1.52;;;;;;;;;;4975174;28;20197;-85
2022/08/24 09:41:44;;;;;;;2.80;1.60;;;;;;;;;;4994266;28;20206;-84
2022/08/24 09:45:03;;;;;;;2.85;1.40;;;;;;;;;;4985899;28;20183;-84
2022/08/24 09:48:30;;;;;;;1.85;1.20;;;;;;;;;;4986064;28;20185;-84
2022/08/24 09:51:35;;;;;;;11.50;2.20;;;;;;;;;;4974959;28;20213;-84
2022/08/24 09:54:56;;;;;;;2.58;1.27;;;;;;;;;;4986117;28;20216;-84
2022/08/24 09:58:17;;;;;;;1.55;1.45;;;;;;;;;;4974861;28;20188;-85
2022/08/24 10:01:31;;;;;;;3.17;1.40;;;;;;;;;;4974986;28;20181;-84
2022/08/24 10:05:01;;;;;;;2.88;1.48;;;;;;;;;;4985697;28;20185;-84
2022/08/24 10:08:21;;;;;;;2.10;1.58;;;;;;;;;;4985514;28;20180;-84
2022/08/24 10:11:45;;;;;;;1.52;1.40;;;;;;;;;;4985214;28;20206;-84
2022/08/24 10:15:02;;;;;;;1.65;1.30;;;;;;;;;;4997266;28;20189;-85
2022/08/24 10:18:09;;;;;;;1.58;1.48;;;;;;;;;;4996545;28;20185;-83
2022/08/24 10:21:46;;;;;;;2.10;1.70;;;;;;;;;;4974245;28;20205;-82
2022/08/24 10:24:53;;;;;;;3.55;1.80;;;;;;;;;;5003999;28;20203;-82
2022/08/24 10:28:19;;;;;;;5.10;2.13;;;;;;;;;;4985085;28;20194;-82
2022/08/24 10:31:39;;;;;;;3.47;2.10;;;;;;;;;;4988989;28;20648;-82
2022/08/24 10:35:01;;;;;;;2.10;1.90;;;;;;;;;;5004922;28;20191;-82
2022/08/24 10:42:00;;;;;;;6.15;1.90;;;;;;;;;;5010042;28;20217;-82
2022/08/24 10:45:25;;;;;;;3.85;1.67;;;;;;;;;;4993583;28;20188;-82
2022/08/24 10:48:30;;;;;;;2.45;1.80;;;;;;;;;;4993106;28;20228;-82
2022/08/24 10:51:55;;;;;;;2.63;1.58;;;;;;;;;;4992398;28;20207;-82
2022/08/24 10:55:14;;;;;;;1.95;1.60;;;;;;;;;;4993553;28;20195;-84
2022/08/24 10:58:28;;;;;;;2.42;1.80;;;;;;;;;;5015686;28;20183;-83
2022/08/24 11:01:37;;;;;;;2.75;1.85;;;;;;;;;;4985512;28;20177;-86
2022/08/24 11:04:43;;;;;;;3.72;1.70;;;;;;;;;;4995702;28;20180;-86
2022/08/24 11:08:03;;;;;;;1.80;1.70;;;;;;;;;;4985828;28;20201;-82
2022/08/24 11:11:11;;;;;;;17.20;2.40;;;;;;;;;;5003857;28;20200;-83
2022/08/24 11:14:28;;;;;;;3.92;1.83;;;;;;;;;;5004135;28;20195;-83
2022/08/24 11:17:39;;;;;;;3.17;1.83;;;;;;;;;;4998529;28;20205;-83
2022/08/24 11:20:48;;;;;;;1.65;1.55;;;;;;;;;;4973814;28;20217;-88
2022/08/24 11:24:26;;;;;;;4.82;1.80;;;;;;;;;;4965269;28;20179;-88
2022/08/24 11:27:37;;;;;;;2.65;1.90;;;;;;;;;;4987094;28;20192;-88
2022/08/24 11:30:41;;;;;;;1.95;1.58;;;;;;;;;;4955740;28;20200;-88
2022/08/24 11:33:51;;;;;;;2.45;1.83;;;;;;;;;;4959696;28;20219;-88
2022/08/24 11:36:56;;;;;;;2.85;1.55;;;;;;;;;;4937670;29;20189;-88
2022/08/24 11:40:03;;;;;;;1.70;1.60;;;;;;;;;;4941535;29;20216;-86
2022/08/24 11:43:25;;;;;;;2.08;1.58;;;;;;;;;;4932881;29;20200;-86
2022/08/24 11:46:30;;;;;;;1.67;1.52;;;;;;;;;;4937240;29;20541;-87
2022/08/24 11:49:59;;;;;;;1.88;1.35;;;;;;;;;;4926739;29;20682;-87
2022/08/24 11:53:10;;;;;;;2.28;1.63;;;;;;;;;;4938007;29;20215;-87
2022/08/24 11:56:47;;;;;;;23.13;2.92;;;;;;;;;;4939200;29;20232;-88
2022/08/24 12:00:07;;;;;;;5.57;1.25;;;;;;;;;;4939075;29;20218;-88
2022/08/24 12:03:29;;;;;;;2.38;1.60;;;;;;;;;;4939095;29;20179;-88
2022/08/24 12:06:48;;;;;;;3.45;1.50;;;;;;;;;;4939006;29;20196;-88
2022/08/24 12:10:21;;;;;;;1.55;1.25;;;;;;;;;;4939309;29;20225;-88
2022/08/24 12:13:43;;;;;;;2.30;1.42;;;;;;;;;;4927183;29;20219;-88
2022/08/24 12:17:02;;;;;;;1.92;1.52;;;;;;;;;;4927405;29;20184;-88
2022/08/24 12:20:28;;;;;;;2.83;1.60;;;;;;;;;;4937679;29;20188;-88
2022/08/24 12:23:37;;;;;;;1.60;1.50;;;;;;;;;;4938305;29;20179;-88
2022/08/24 12:26:49;;;;;;;1.85;1.30;;;;;;;;;;4937870;29;20179;-88
2022/08/24 12:30:14;;;;;;;1.40;1.30;;;;;;;;;;4938751;29;20223;-88
2022/08/24 12:33:27;;;;;;;6.72;1.52;;;;;;;;;;4916628;29;20668;-88
2022/08/24 12:37:11;;;;;;;1.30;1.20;;;;;;;;;;4937191;29;20184;-86
2022/08/24 12:40:33;;;;;;;1.60;1.50;;;;;;;;;;4884230;29;20204;-87
2022/08/24 12:44:00;;;;;;;1.45;1.35;;;;;;;;;;4926286;29;20179;-87
2022/08/24 12:47:04;;;;;;;1.85;1.50;;;;;;;;;;4942380;29;20543;-87
2022/08/24 12:50:14;;;;;;;2.70;1.70;;;;;;;;;;4945091;29;20639;-87
2022/08/24 12:53:37;;;;;;;3.35;1.50;;;;;;;;;;4944785;29;20222;-86
2022/08/24 12:56:59;;;;;;;2.03;1.45;;;;;;;;;;4933742;29;20187;-86
2022/08/24 13:00:19;;;;;;;1.95;1.55;;;;;;;;;;4956203;29;20183;-87
2022/08/24 13:03:30;;;;;;;4.45;1.98;;;;;;;;;;4956548;29;20507;-86
2022/08/24 13:06:51;;;;;;;2.67;1.63;;;;;;;;;;4956925;29;20199;-86
2022/08/24 13:09:54;;;;;;;2.53;1.80;;;;;;;;;;4956535;28;20221;-85
2022/08/24 13:13:09;;;;;;;2.00;1.88;;;;;;;;;;4934096;29;20217;-87
2022/08/24 13:16:55;;;;;;;3.05;2.15;;;;;;;;;;4956453;29;20186;-86
2022/08/24 13:20:23;;;;;;;7.85;1.95;;;;;;;;;;4864974;28;20255;-88
2022/08/24 13:23:27;;;;;;;2.10;1.90;;;;;;;;;;4945135;29;20638;-86
2022/08/24 13:26:32;;;;;;;4.03;2.15;;;;;;;;;;4956322;29;20187;-86
2022/08/24 13:29:40;;;;;;;2.80;2.08;;;;;;;;;;4956203;28;20223;-87
2022/08/24 13:32:55;;;;;;;4.22;2.17;;;;;;;;;;4956515;29;20224;-86
2022/08/24 13:36:05;;;;;;;3.28;2.40;;;;;;;;;;4955927;28;20551;-86
2022/08/24 13:39:40;;;;;;;3.03;1.95;;;;;;;;;;4936744;29;20229;-86
2022/08/24 13:43:03;;;;;;;3.65;2.10;;;;;;;;;;4936913;29;20181;-86
2022/08/24 13:46:24;;;;;;;3.93;2.27;;;;;;;;;;4942906;29;20196;-86
2022/08/24 13:50:09;;;;;;;2.25;1.80;;;;;;;;;;4956053;28;20220;-86
2022/08/24 13:53:37;;;;;;;2.03;1.83;;;;;;;;;;4955233;29;20208;-87
2022/08/24 13:57:00;;;;;;;3.42;1.60;;;;;;;;;;4944448;29;20189;-86
2022/08/24 14:00:31;;;;;;;1.50;1.40;;;;;;;;;;4932896;29;20182;-86
2022/08/24 14:03:52;;;;;;;5.05;1.70;;;;;;;;;;4914129;29;20568;-87
2022/08/24 14:07:01;;;;;;;16.80;2.28;;;;;;;;;;4936594;29;20182;-86
2022/08/24 14:10:19;;;;;;;2.15;1.48;;;;;;;;;;4940456;29;20195;-87
2022/08/24 14:13:51;;;;;;;1.40;1.27;;;;;;;;;;4929171;29;20215;-87
2022/08/24 14:21:09;;;;;;;1.45;1.35;;;;;;;;;;4945215;29;20208;-86
2022/08/24 14:24:35;;;;;;;2.60;1.65;;;;;;;;;;4957619;29;20178;-87
2022/08/24 14:27:48;;;;;;;1.83;1.40;;;;;;;;;;4968491;28;20194;-87
2022/08/24 14:31:27;;;;;;;2.80;1.70;;;;;;;;;;4960757;29;20186;-87
2022/08/24 14:34:44;;;;;;;8.05;1.70;;;;;;;;;;4916393;29;20247;-87
2022/08/24 14:37:54;;;;;;;1.90;1.52;;;;;;;;;;4958199;28;20278;-86
2022/08/24 14:41:16;;;;;;;2.40;1.30;;;;;;;;;;4948553;29;20188;-87
2022/08/24 14:44:49;;;;;;;1.40;1.13;;;;;;;;;;4949037;29;20191;-87
2022/08/24 14:48:34;;;;;;;3.65;1.40;;;;;;;;;;4962113;28;20216;-87
2022/08/24 14:51:59;;;;;;;2.05;1.48;;;;;;;;;;4931301;29;20176;-87
2022/08/24 14:55:49;;;;;;;9.50;1.88;;;;;;;;;;4930652;29;20183;-86
2022/08/24 14:59:06;;;;;;;3.70;1.55;;;;;;;;;;4939301;29;20216;-87
2022/08/24 15:02:19;;;;;;;3.70;2.00;;;;;;;;;;4954159;29;20190;-87
2022/08/24 15:05:29;;;;;;;2.28;1.70;;;;;;;;;;4943418;29;20189;-87
2022/08/24 15:08:43;;;;;;;1.90;1.80;;;;;;;;;;4941320;29;20230;-87
2022/08/24 15:11:48;;;;;;;2.42;1.55;;;;;;;;;;4967062;28;20201;-86
2022/08/24 15:15:00;;;;;;;1.83;1.52;;;;;;;;;;4960901;29;20208;-86
2022/08/24 15:18:20;;;;;;;4.72;1.60;;;;;;;;;;4952304;29;20230;-85
2022/08/24 15:21:39;;;;;;;2.55;1.60;;;;;;;;;;4939503;29;20187;-84
2022/08/24 15:24:59;;;;;;;3.33;1.50;;;;;;;;;;4940265;29;20187;-81
2022/08/24 15:28:12;;;;;;;3.20;1.50;;;;;;;;;;4938973;29;20221;-81
2022/08/24 15:31:25;;;;;;;2.15;1.30;;;;;;;;;;4941079;29;20187;-83
2022/08/24 15:34:47;;;;;;;1.90;1.55;;;;;;;;;;4940289;29;20217;-82
2022/08/24 15:37:52;;;;;;;3.60;1.80;;;;;;;;;;4939259;29;20642;-83
2022/08/24 15:41:11;;;;;;;2.20;1.70;;;;;;;;;;4940120;29;20210;-82
2022/08/24 15:44:22;;;;;;;3.78;1.63;;;;;;;;;;4951253;29;20198;-82
2022/08/24 15:47:37;;;;;;;5.10;1.65;;;;;;;;;;4939619;29;20182;-82
2022/08/24 15:50:44;;;;;;;6.75;2.17;;;;;;;;;;4930424;29;20181;-82
2022/08/24 15:53:48;;;;;;;9.93;2.92;;;;;;;;;;4941152;29;20213;-82
2022/08/24 15:57:04;;;;;;;3.92;1.85;;;;;;;;;;4940546;29;20180;-82
2022/08/24 16:02:24;;;;;;;2.00;1.63;;;;;;;;;;4939469;29;20188;-81
2022/08/24 16:03:49;;;;;;;2.25;1.60;;;;;;;;;;4952219;29;20555;-81
2022/08/24 16:06:55;;;;;;;2.40;1.60;;;;;;;;;;4948013;29;20180;-81
2022/08/24 16:10:05;;;;;;;2.17;1.67;;;;;;;;;;4958709;29;20224;-82
2022/08/24 16:13:22;;;;;;;2.30;1.57;;;;;;;;;;4958273;29;20212;-82
2022/08/24 16:16:36;;;;;;;2.03;1.83;;;;;;;;;;4969886;28;20193;-82
2022/08/24 16:19:49;;;;;;;1.80;1.70;;;;;;;;;;4969983;28;20226;-82
2022/08/24 16:22:58;;;;;;;1.70;1.60;;;;;;;;;;4939762;29;20188;-82
2022/08/24 16:26:26;;;;;;;2.80;1.60;;;;;;;;;;4928184;29;20531;-81
2022/08/24 16:29:33;;;;;;;8.60;1.50;;;;;;;;;;4939471;29;20219;-81
2022/08/24 16:32:52;;;;;;;2.03;1.50;;;;;;;;;;4926669;29;20204;-81
2022/08/24 16:35:57;;;;;;;1.57;1.30;;;;;;;;;;4937911;29;20192;-81
2022/08/24 16:39:03;;;;;;;4.80;1.83;;;;;;;;;;4938435;29;20227;-82
2022/08/24 16:42:22;;;;;;;4.50;2.00;;;;;;;;;;4939418;29;20198;-82
2022/08/24 16:45:26;;;;;;;2.07;1.70;;;;;;;;;;4949855;29;20188;-82
2022/08/24 16:48:31;;;;;;;7.17;4.30;;;;;;;;;;4940394;29;20221;-82
2022/08/24 16:51:34;;;;;;;2.63;1.90;;;;;;;;;;4950137;29;20531;-81
2022/08/24 16:54:39;;;;;;;3.57;2.03;;;;;;;;;;4938982;29;20208;-80
2022/08/24 16:57:44;;;;;;;3.20;2.30;;;;;;;;;;4927889;29;20632;-81
2022/08/24 17:00:49;;;;;;;13.03;2.57;;;;;;;;;;4938082;29;20207;-80
2022/08/24 17:03:53;;;;;;;6.23;2.47;;;;;;;;;;4937242;29;20180;-81
2022/08/24 17:06:58;;;;;;;4.23;2.00;;;;;;;;;;4938487;29;20277;-81
2022/08/24 17:10:07;;;;;;;8.33;2.53;;;;;;;;;;4949201;28;20680;-80
2022/08/24 17:13:10;;;;;;;4.13;2.33;;;;;;;;;;4948083;29;20186;-80
2022/08/24 17:16:15;;;;;;;4.50;2.67;;;;;;;;;;4937757;29;20182;-80
2022/08/24 17:19:19;;;;;;;3.47;2.40;;;;;;;;;;4978868;23;20599;-83
2022/08/24 17:22:25;;;;;;;4.87;2.43;;;;;;;;;;4995882;28;20635;-83
2022/08/24 17:25:29;;;;;;;5.83;2.87;;;;;;;;;;4971877;28;20663;-82
2022/08/24 17:28:37;;;;;;;7.30;2.20;;;;;;;;;;4995534;28;20218;-83
2022/08/24 17:31:42;;;;;;;3.80;2.53;;;;;;;;;;4977164;28;20192;-82
2022/08/24 17:34:46;;;;;;;3.90;2.57;;;;;;;;;;4965704;28;20207;-82
2022/08/24 17:37:52;;;;;;;2.50;2.30;;;;;;;;;;4968181;28;20195;-83
2022/08/24 17:40:56;;;;;;;9.47;3.10;;;;;;;;;;4977480;28;20676;-83
2022/08/24 17:44:01;;;;;;;11.87;3.00;;;;;;;;;;4987802;28;20181;-83
2022/08/24 17:47:05;;;;;;;8.40;3.07;;;;;;;;;;4999243;28;20650;-83
2022/08/24 17:50:12;;;;;;;4.23;3.07;;;;;;;;;;4998722;28;20551;-83
2022/08/24 17:53:16;;;;;;;6.30;3.40;;;;;;;;;;4998000;28;20190;-82
2022/08/24 17:56:21;;;;;;;10.40;4.53;;;;;;;;;;5007465;28;20187;-83
2022/08/24 17:59:31;;;;;;;5.30;3.27;;;;;;;;;;4999338;28;20221;-83
2022/08/24 18:02:35;;;;;;;5.30;3.43;;;;;;;;;;5002496;28;20199;-83
2022/08/24 18:05:40;;;;;;;4.77;3.90;;;;;;;;;;4999537;28;20182;-83
2022/08/24 18:08:46;;;;;;;4.17;3.50;;;;;;;;;;4997088;28;20218;-82
2022/08/24 18:11:50;;;;;;;3.17;2.87;;;;;;;;;;5000622;28;20182;-83
2022/08/24 18:14:54;;;;;;;3.57;3.13;;;;;;;;;;5000320;28;20225;-83
2022/08/24 18:18:00;;;;;;;4.80;2.80;;;;;;;;;;5001857;28;20203;-83
2022/08/24 18:21:04;;;;;;;4.87;3.90;;;;;;;;;;5012589;28;20660;-86
2022/08/24 18:24:08;;;;;;;7.57;3.47;;;;;;;;;;4985738;28;20182;-85
2022/08/24 18:27:22;;;;;;;6.10;3.03;;;;;;;;;;4987224;28;20187;-85
2022/08/24 18:30:35;;;;;;;4.17;3.27;;;;;;;;;;4998854;28;20194;-85
2022/08/24 18:34:17;;;;;;;3.67;3.20;;;;;;;;;;4999249;28;20201;-85
2022/08/24 18:39:05;;;;;;;4.63;3.67;;;;;;;;;;4998980;28;20205;-85
2022/08/24 18:42:26;;;;;;;3.70;3.40;;;;;;;;;;4987215;28;20704;-85
2022/08/24 18:45:32;;;;;;;3.83;3.50;;;;;;;;;;4965976;28;20183;-85
2022/08/24 18:48:37;;;;;;;4.43;3.50;;;;;;;;;;4988845;28;20213;-85
2022/08/24 18:51:43;;;;;;;5.83;3.70;;;;;;;;;;4973886;28;20198;-84
2022/08/24 18:54:49;;;;;;;6.27;3.80;;;;;;;;;;4996798;28;20210;-85
2022/08/24 18:57:55;;;;;;;4.33;3.60;;;;;;;;;;4968849;28;20527;-85
2022/08/24 19:00:59;;;;;;;4.17;3.57;;;;;;;;;;4967791;28;20205;-85
2022/08/24 19:04:03;;;;;;;3.77;3.37;;;;;;;;;;4966923;28;20175;-85
2022/08/24 19:07:08;;;;;;;4.37;3.60;;;;;;;;;;4967987;28;20174;-85
2022/08/24 19:10:15;;;;;;;5.00;3.67;;;;;;;;;;4983461;28;20225;-85
2022/08/24 19:13:20;;;;;;;3.93;3.33;;;;;;;;;;4983998;28;20198;-85
2022/08/24 19:16:24;;;;;;;6.10;4.10;;;;;;;;;;4973545;28;20194;-85
2022/08/24 19:19:28;;;;;;;6.27;3.53;;;;;;;;;;4973369;28;20225;-85
2022/08/24 19:22:32;;;;;;;4.07;3.67;;;;;;;;;;4995734;28;20178;-89
2022/08/24 19:25:39;;;;;;;6.43;3.80;;;;;;;;;;4995169;28;20201;-89
2022/08/24 19:28:43;;;;;;;5.53;4.17;;;;;;;;;;4972906;28;20226;-89